createdAt,value
2022-10-10T00:02:22.751Z,2.70
2022-10-10T00:04:53.827Z,2.70
2022-10-10T00:07:23.462Z,2.80
2022-10-10T00:09:54.420Z,2.90
2022-10-10T00:12:24.197Z,2.80
2022-10-10T00:14:53.771Z,2.90
2022-10-10T00:17:23.018Z,2.70
2022-10-10T00:19:52.195Z,2.60
2022-10-10T00:22:21.746Z,2.80
2022-10-10T00:24:51.036Z,2.70
2022-10-10T00:27:22.042Z,2.60
2022-10-10T00:29:51.294Z,2.60
2022-10-10T00:32:20.642Z,2.60
2022-10-10T00:34:50.031Z,2.60
2022-10-10T00:37:19.563Z,2.70
2022-10-10T00:39:49.178Z,2.70
2022-10-10T00:42:19.346Z,2.60
2022-10-10T00:45:28.786Z,2.60
2022-10-10T00:48:05.175Z,2.60
2022-10-10T00:50:38.042Z,2.50
2022-10-10T00:53:08.849Z,2.80
2022-10-10T00:55:39.337Z,2.70
2022-10-10T00:58:11.037Z,2.80
2022-10-10T01:00:40.658Z,2.60
2022-10-10T01:03:13.266Z,2.50
2022-10-10T01:05:44.006Z,2.50
2022-10-10T01:08:13.422Z,2.40
2022-10-10T01:10:50.605Z,2.40
2022-10-10T01:13:29.643Z,2.40
2022-10-10T01:16:05.863Z,2.40
2022-10-10T01:18:45.233Z,2.50
2022-10-10T01:21:30.321Z,2.50
2022-10-10T01:24:29.888Z,2.50
2022-10-10T01:27:13.082Z,2.50
2022-10-10T01:29:47.435Z,2.50
2022-10-10T01:32:24.158Z,2.50
2022-10-10T01:35:09.797Z,2.50
2022-10-10T01:37:48.961Z,2.50
2022-10-10T01:40:26.360Z,2.40
2022-10-10T01:42:58.288Z,2.40
2022-10-10T01:45:32.665Z,2.40
2022-10-10T01:48:05.841Z,2.40
2022-10-10T01:50:42.097Z,2.50
2022-10-10T01:53:16.381Z,2.40
2022-10-10T01:55:56.200Z,2.70
2022-10-10T01:58:48.012Z,2.80
2022-10-10T02:01:26.869Z,3.00
2022-10-10T02:04:06.762Z,3.10
2022-10-10T02:06:44.152Z,3.00
2022-10-10T02:09:17.321Z,3.10
2022-10-10T02:11:49.297Z,3.20
2022-10-10T02:14:22.936Z,3.20
2022-10-10T02:16:56.864Z,3.20
2022-10-10T02:19:27.401Z,3.10
2022-10-10T02:21:57.750Z,3.00
2022-10-10T02:24:27.406Z,3.00
2022-10-10T02:27:04.298Z,2.90
2022-10-10T02:29:37.699Z,2.80
2022-10-10T02:32:13.321Z,2.80
2022-10-10T02:34:49.356Z,2.80
2022-10-10T02:37:18.960Z,2.70
2022-10-10T02:39:53.415Z,2.60
2022-10-10T02:42:24.668Z,2.50
2022-10-10T02:44:54.600Z,2.60
2022-10-10T02:47:25.611Z,2.70
2022-10-10T02:49:54.839Z,2.90
2022-10-10T02:52:23.968Z,3.00
2022-10-10T02:54:52.866Z,3.20
2022-10-10T02:57:21.963Z,3.20
2022-10-10T02:59:50.987Z,3.10
2022-10-10T03:02:20.404Z,3.00
2022-10-10T03:04:51.334Z,3.00
2022-10-10T03:07:20.671Z,2.90
2022-10-10T03:09:49.495Z,3.00
2022-10-10T03:12:18.564Z,3.10
2022-10-10T03:14:48.134Z,3.20
2022-10-10T03:17:18.146Z,3.10
2022-10-10T03:19:47.419Z,3.10
2022-10-10T03:22:18.290Z,3.10
2022-10-10T03:24:47.087Z,3.20
2022-10-10T03:27:16.524Z,3.30
2022-10-10T03:29:45.518Z,3.40
2022-10-10T03:32:14.603Z,3.30
2022-10-10T03:34:44.151Z,3.30
2022-10-10T03:37:13.422Z,3.30
2022-10-10T03:39:44.759Z,3.30
2022-10-10T03:42:13.892Z,3.30
2022-10-10T03:44:43.416Z,3.40
2022-10-10T03:47:12.694Z,3.40
2022-10-10T03:49:41.965Z,3.30
2022-10-10T03:52:11.294Z,3.20
2022-10-10T03:54:40.782Z,3.30
2022-10-10T03:57:11.603Z,3.20
2022-10-10T03:59:40.806Z,3.10
2022-10-10T04:02:10.478Z,3.00
2022-10-10T04:04:39.670Z,3.00
2022-10-10T04:07:08.885Z,3.00
2022-10-10T04:09:38.338Z,2.90
2022-10-10T04:12:07.598Z,2.80
2022-10-10T04:14:38.859Z,2.70
2022-10-10T04:17:07.966Z,2.60
2022-10-10T04:19:37.314Z,2.50
2022-10-10T04:22:10.806Z,2.40
2022-10-10T04:24:40.895Z,2.30
2022-10-10T04:27:10.204Z,2.60
2022-10-10T04:29:41.040Z,2.50
2022-10-10T04:32:10.301Z,2.40
2022-10-10T04:34:39.666Z,2.40
2022-10-10T04:37:08.829Z,2.60
2022-10-10T04:39:37.926Z,2.60
2022-10-10T04:42:07.334Z,2.70
2022-10-10T04:44:36.630Z,2.60
2022-10-10T04:47:07.713Z,2.50
2022-10-10T04:49:38.169Z,2.50
2022-10-10T04:52:10.925Z,2.40
2022-10-10T04:54:40.745Z,2.30
2022-10-10T04:57:10.153Z,2.20
2022-10-10T04:59:39.662Z,2.10
2022-10-10T05:02:10.698Z,2.10
2022-10-10T05:04:40.073Z,2.20
2022-10-10T05:07:09.453Z,2.20
2022-10-10T05:09:38.583Z,2.20
2022-10-10T05:12:08.026Z,2.10
2022-10-10T05:14:37.749Z,2.10
2022-10-10T05:17:06.878Z,2.10
2022-10-10T05:19:38.246Z,2.10
2022-10-10T05:22:07.781Z,2.10
2022-10-10T05:24:37.329Z,2.10
2022-10-10T05:27:06.598Z,2.20
2022-10-10T05:29:35.904Z,2.20
2022-10-10T05:32:10.268Z,2.20
2022-10-10T05:34:41.821Z,2.20
2022-10-10T05:37:11.692Z,2.40
2022-10-10T05:39:40.961Z,2.40
2022-10-10T05:42:10.948Z,2.50
2022-10-10T05:44:40.014Z,2.50
2022-10-10T05:47:09.586Z,2.60
2022-10-10T05:49:39.016Z,2.60
2022-10-10T05:52:10.117Z,2.70
2022-10-10T05:54:39.648Z,2.80
2022-10-10T05:57:12.713Z,2.90
2022-10-10T05:59:45.380Z,3.00
2022-10-10T06:02:17.607Z,3.20
2022-10-10T06:04:47.304Z,3.30
2022-10-10T06:07:18.360Z,3.50
2022-10-10T06:09:48.107Z,3.60
2022-10-10T06:12:17.795Z,3.80
2022-10-10T06:14:47.852Z,4.00
2022-10-10T06:17:17.139Z,4.20
2022-10-10T06:19:46.484Z,4.40
2022-10-10T06:22:17.760Z,4.70
2022-10-10T06:24:52.179Z,4.80
2022-10-10T06:27:22.409Z,5.00
2022-10-10T06:29:52.148Z,5.10
2022-10-10T06:32:21.635Z,5.20
2022-10-10T06:34:50.768Z,5.40
2022-10-10T06:37:21.996Z,5.50
2022-10-10T06:39:52.467Z,5.60
2022-10-10T06:42:21.961Z,5.80
2022-10-10T06:44:59.915Z,5.90
2022-10-10T06:47:29.423Z,5.90
2022-10-10T06:49:59.254Z,6.00
2022-10-10T06:52:30.381Z,6.20
2022-10-10T06:54:59.727Z,6.40
2022-10-10T06:57:30.674Z,6.60
2022-10-10T07:00:01.118Z,6.70
2022-10-10T07:02:30.814Z,6.70
2022-10-10T07:05:00.418Z,6.90
2022-10-10T07:07:31.558Z,7.00
2022-10-10T07:10:01.163Z,7.00
2022-10-10T07:12:34.180Z,7.30
2022-10-10T07:15:08.295Z,7.60
2022-10-10T07:17:37.926Z,7.60
2022-10-10T07:20:08.302Z,7.70
2022-10-10T07:22:39.978Z,7.60
2022-10-10T07:25:10.773Z,7.80
2022-10-10T07:27:40.707Z,7.80
2022-10-10T07:30:11.443Z,8.00
2022-10-10T07:32:40.428Z,8.20
2022-10-10T07:35:10.634Z,8.40
2022-10-10T07:37:41.802Z,8.60
2022-10-10T07:40:11.985Z,8.80
2022-10-10T07:42:41.686Z,9.00
2022-10-10T07:45:12.662Z,9.20
2022-10-10T07:47:42.494Z,9.50
2022-10-10T07:50:14.261Z,9.80
2022-10-10T07:52:45.285Z,9.90
2022-10-10T07:55:14.684Z,10.30
2022-10-10T07:57:43.741Z,11.10
2022-10-10T08:00:14.470Z,11.90
2022-10-10T08:02:43.810Z,12.90
2022-10-10T08:05:13.173Z,13.80
2022-10-10T08:07:44.777Z,14.30
2022-10-10T08:10:13.896Z,14.90
2022-10-10T08:12:43.394Z,16.00
2022-10-10T08:15:13.428Z,15.90
2022-10-10T08:17:43.550Z,16.30
2022-10-10T08:20:13.125Z,16.20
2022-10-10T08:22:44.273Z,16.70
2022-10-10T08:25:13.677Z,16.90
2022-10-10T08:27:43.264Z,17.40
2022-10-10T08:30:13.904Z,18.30
2022-10-10T08:32:43.296Z,18.80
2022-10-10T08:35:12.825Z,18.30
2022-10-10T08:37:41.969Z,18.30
2022-10-10T08:40:17.932Z,18.70
2022-10-10T08:42:56.810Z,19.30
2022-10-10T08:45:29.908Z,19.80
2022-10-10T08:48:01.549Z,19.50
2022-10-10T08:50:35.303Z,20.40
2022-10-10T08:53:08.705Z,20.10
2022-10-10T08:55:44.259Z,19.80
2022-10-10T08:58:21.931Z,19.10
2022-10-10T09:00:58.080Z,20.40
2022-10-10T09:03:34.831Z,22.10
2022-10-10T09:06:18.675Z,21.60
2022-10-10T09:08:56.443Z,21.30
2022-10-10T09:11:43.247Z,21.10
2022-10-10T09:14:26.160Z,21.30
2022-10-10T09:17:00.414Z,21.70
2022-10-10T09:19:43.359Z,21.60
2022-10-10T09:22:18.403Z,22.30
2022-10-10T09:24:52.957Z,24.00
2022-10-10T09:27:30.007Z,22.90
2022-10-10T09:30:05.691Z,22.80
2022-10-10T09:32:39.926Z,23.60
2022-10-10T09:35:20.265Z,24.70
2022-10-10T09:37:55.201Z,25.10
2022-10-10T09:40:28.807Z,25.30
2022-10-10T09:42:59.289Z,24.00
2022-10-10T09:45:32.997Z,23.60
2022-10-10T09:48:03.052Z,24.00
2022-10-10T09:50:33.445Z,24.10
2022-10-10T09:53:03.606Z,25.20
2022-10-10T09:55:36.705Z,24.10
2022-10-10T09:58:18.359Z,25.70
2022-10-10T10:00:47.487Z,24.70
2022-10-10T10:03:18.287Z,25.80
2022-10-10T10:05:56.114Z,26.40
2022-10-10T10:08:28.876Z,25.30
2022-10-10T10:11:01.924Z,24.40
2022-10-10T10:13:35.605Z,25.00
2022-10-10T10:16:08.687Z,24.60
2022-10-10T10:18:43.933Z,24.10
2022-10-10T10:21:17.616Z,24.30
2022-10-10T10:23:54.544Z,24.50
2022-10-10T10:26:27.746Z,25.50
2022-10-10T10:28:59.744Z,24.20
2022-10-10T10:31:55.769Z,23.50
2022-10-10T10:34:41.477Z,23.30
2022-10-10T10:37:20.992Z,24.00
2022-10-10T10:40:01.768Z,24.30
2022-10-10T10:42:48.457Z,23.50
2022-10-10T10:45:27.416Z,22.50
2022-10-10T10:48:03.281Z,21.80
2022-10-10T10:50:45.665Z,21.00
2022-10-10T10:53:24.579Z,21.30
2022-10-10T10:56:03.255Z,22.30
2022-10-10T10:59:34.488Z,23.40
2022-10-10T11:02:31.305Z,23.70
2022-10-10T11:05:41.717Z,24.10
2022-10-10T11:08:48.044Z,24.10
2022-10-10T11:11:33.016Z,24.00
2022-10-10T11:14:12.389Z,23.80
2022-10-10T11:16:56.451Z,23.80
2022-10-10T11:19:34.111Z,23.40
2022-10-10T11:22:07.792Z,22.90
2022-10-10T11:24:49.267Z,22.80
2022-10-10T11:27:23.581Z,23.30
2022-10-10T11:30:00.259Z,24.10
2022-10-10T11:32:35.484Z,23.40
2022-10-10T11:35:18.188Z,23.10
2022-10-10T11:37:54.325Z,23.30
2022-10-10T11:40:39.379Z,23.50
2022-10-10T11:43:15.499Z,23.50
2022-10-10T11:45:53.589Z,24.10
2022-10-10T11:48:33.203Z,25.30
2022-10-10T11:51:16.256Z,26.00
2022-10-10T11:53:48.175Z,26.30
2022-10-10T11:56:28.647Z,26.60
2022-10-10T11:59:02.918Z,25.80
2022-10-10T12:01:36.519Z,25.30
2022-10-10T12:04:06.844Z,27.00
2022-10-10T12:06:43.803Z,26.90
2022-10-10T12:09:17.587Z,24.50
2022-10-10T12:11:52.962Z,24.40
2022-10-10T12:14:24.837Z,24.60
2022-10-10T12:16:54.470Z,23.70
2022-10-10T12:19:25.485Z,23.50
2022-10-10T12:22:03.382Z,23.50
2022-10-10T12:24:37.703Z,23.70
2022-10-10T12:27:45.874Z,24.30
2022-10-10T12:30:27.658Z,24.40
2022-10-10T12:32:57.855Z,23.90
2022-10-10T12:35:42.053Z,23.60
2022-10-10T12:38:17.081Z,22.90
2022-10-10T12:41:08.972Z,23.60
2022-10-10T12:43:55.610Z,25.20
2022-10-10T12:46:30.841Z,25.20
2022-10-10T12:49:21.921Z,25.00
2022-10-10T12:52:04.203Z,25.30
2022-10-10T12:54:41.873Z,25.10
2022-10-10T12:57:22.514Z,26.00
2022-10-10T12:59:52.576Z,25.70
2022-10-10T13:02:27.662Z,26.80
2022-10-10T13:05:00.689Z,27.00
2022-10-10T13:07:30.933Z,26.90
2022-10-10T13:10:12.028Z,27.80
2022-10-10T13:12:42.013Z,26.70
2022-10-10T13:15:21.920Z,27.10
2022-10-10T13:17:51.993Z,26.50
2022-10-10T13:20:36.964Z,27.40
2022-10-10T13:23:08.581Z,26.40
2022-10-10T13:25:42.104Z,26.10
2022-10-10T13:28:19.262Z,25.90
2022-10-10T13:30:49.806Z,25.60
2022-10-10T13:33:22.479Z,25.80
2022-10-10T13:35:53.032Z,24.80
2022-10-10T13:38:27.483Z,25.40
2022-10-10T13:40:59.548Z,25.40
2022-10-10T13:43:29.661Z,25.10
2022-10-10T13:46:01.438Z,24.40
2022-10-10T13:48:40.695Z,23.50
2022-10-10T13:51:12.594Z,23.00
2022-10-10T13:53:53.945Z,22.60
2022-10-10T13:56:30.331Z,22.10
2022-10-10T13:59:07.509Z,21.90
2022-10-10T14:01:40.477Z,21.90
2022-10-10T14:04:23.907Z,21.80
2022-10-10T14:07:00.518Z,21.40
2022-10-10T14:09:34.880Z,21.20
2022-10-10T14:12:09.844Z,21.30
2022-10-10T14:14:45.755Z,21.10
2022-10-10T14:17:15.416Z,21.20
2022-10-10T14:19:46.859Z,21.70
2022-10-10T14:22:17.142Z,21.80
2022-10-10T14:24:47.057Z,21.20
2022-10-10T14:27:27.247Z,20.60
2022-10-10T14:29:59.027Z,21.00
2022-10-10T14:32:28.805Z,21.10
2022-10-10T14:34:58.289Z,21.00
2022-10-10T14:37:31.971Z,21.10
2022-10-10T14:40:01.533Z,21.40
2022-10-10T14:42:32.694Z,21.80
2022-10-10T14:45:14.074Z,22.10
2022-10-10T14:47:43.918Z,22.20
2022-10-10T14:50:18.976Z,22.20
2022-10-10T14:52:48.590Z,21.80
2022-10-10T14:55:17.743Z,21.90
2022-10-10T14:57:48.881Z,21.70
2022-10-10T15:00:20.566Z,21.60
2022-10-10T15:02:50.621Z,22.00
2022-10-10T15:05:22.615Z,21.70
2022-10-10T15:07:55.973Z,21.30
2022-10-10T15:10:34.637Z,21.10
2022-10-10T15:13:06.581Z,20.90
2022-10-10T15:15:36.788Z,20.60
2022-10-10T15:18:15.438Z,20.50
2022-10-10T15:20:56.217Z,20.30
2022-10-10T15:23:26.242Z,20.20
2022-10-10T15:25:56.359Z,20.00
2022-10-10T15:28:31.288Z,19.50
2022-10-10T15:31:00.941Z,19.30
2022-10-10T15:33:30.474Z,19.20
2022-10-10T15:36:10.002Z,19.00
2022-10-10T15:38:40.529Z,18.70
2022-10-10T15:41:12.138Z,18.60
2022-10-10T15:43:53.609Z,18.30
2022-10-10T15:46:28.138Z,18.20
2022-10-10T15:49:01.631Z,18.00
2022-10-10T15:51:32.225Z,18.00
2022-10-10T15:54:02.856Z,17.80
2022-10-10T15:56:32.809Z,17.50
2022-10-10T15:59:05.234Z,17.50
2022-10-10T16:01:35.173Z,17.10
2022-10-10T16:04:06.534Z,17.50
2022-10-10T16:06:36.645Z,17.00
2022-10-10T16:09:27.697Z,16.60
2022-10-10T16:11:56.318Z,16.30
2022-10-10T16:14:27.901Z,16.20
2022-10-10T16:17:00.697Z,16.30
2022-10-10T16:19:30.224Z,16.10
2022-10-10T16:21:59.988Z,15.90
2022-10-10T16:24:30.088Z,15.80
2022-10-10T16:26:59.916Z,15.80
2022-10-10T16:29:31.304Z,15.70
2022-10-10T16:32:01.044Z,15.80
2022-10-10T16:34:31.404Z,15.70
2022-10-10T16:37:01.016Z,15.40
2022-10-10T16:39:30.492Z,15.20
2022-10-10T16:41:59.864Z,15.10
2022-10-10T16:44:33.284Z,14.90
2022-10-10T16:47:02.912Z,14.80
2022-10-10T16:49:32.486Z,14.80
2022-10-10T16:52:02.089Z,15.00
2022-10-10T16:54:31.453Z,15.00
2022-10-10T16:57:01.116Z,14.90
2022-10-10T16:59:35.349Z,14.70
2022-10-10T17:02:05.255Z,14.70
2022-10-10T17:04:34.999Z,14.60
2022-10-10T17:07:05.096Z,14.70
2022-10-10T17:09:34.932Z,14.70
2022-10-10T17:12:04.531Z,14.70
2022-10-10T17:14:35.987Z,14.50
2022-10-10T17:17:13.621Z,14.40
2022-10-10T17:19:43.942Z,14.30
2022-10-10T17:22:13.546Z,14.30
2022-10-10T17:24:43.382Z,14.50
2022-10-10T17:27:13.466Z,14.30
2022-10-10T17:29:45.251Z,14.40
2022-10-10T17:32:15.281Z,14.40
2022-10-10T17:34:45.459Z,12.70
2022-10-10T17:37:15.388Z,14.50
2022-10-10T17:39:46.118Z,14.50
2022-10-10T17:42:17.765Z,14.40
2022-10-10T17:44:53.971Z,14.50
2022-10-10T17:47:26.247Z,14.40
2022-10-10T17:49:59.227Z,13.20
2022-10-10T17:52:29.246Z,14.30
2022-10-10T17:55:00.436Z,14.20
2022-10-10T17:57:30.866Z,14.20
2022-10-10T18:00:03.127Z,14.00
2022-10-10T18:02:38.135Z,14.00
2022-10-10T18:05:08.545Z,13.90
2022-10-10T18:07:38.994Z,13.90
2022-10-10T18:10:10.062Z,13.80
2022-10-10T18:12:40.236Z,13.80
2022-10-10T18:15:12.715Z,13.70
2022-10-10T18:17:43.061Z,13.70
2022-10-10T18:20:15.784Z,13.70
2022-10-10T18:22:45.603Z,13.60
2022-10-10T18:25:21.611Z,13.40
2022-10-10T18:27:54.179Z,13.50
2022-10-10T18:30:25.612Z,13.50
2022-10-10T18:32:56.393Z,13.40
2022-10-10T18:35:26.330Z,13.40
2022-10-10T18:37:59.424Z,13.50
2022-10-10T18:40:29.281Z,13.40
2022-10-10T18:42:59.303Z,13.40
2022-10-10T18:45:34.707Z,13.30
2022-10-10T18:48:05.049Z,13.40
2022-10-10T18:50:38.372Z,13.40
2022-10-10T18:53:08.271Z,13.40
2022-10-10T18:55:39.662Z,13.50
2022-10-10T18:58:09.477Z,13.60
2022-10-10T19:00:42.429Z,13.50
2022-10-10T19:03:11.909Z,13.60
2022-10-10T19:05:42.368Z,13.60
2022-10-10T19:08:12.029Z,13.70
2022-10-10T19:10:46.881Z,13.70
2022-10-10T19:13:18.704Z,13.70
2022-10-10T19:15:52.228Z,13.80
2022-10-10T19:18:22.850Z,13.70
2022-10-10T19:20:53.594Z,13.70
2022-10-10T19:23:24.073Z,13.70
2022-10-10T19:25:58.684Z,13.70
2022-10-10T19:28:35.117Z,13.70
2022-10-10T19:31:08.987Z,13.60
2022-10-10T19:33:39.967Z,13.60
2022-10-10T19:36:13.329Z,13.60
2022-10-10T19:38:48.404Z,13.50
2022-10-10T19:41:19.173Z,13.50
2022-10-10T19:43:52.555Z,13.40
2022-10-10T19:46:25.432Z,13.40
2022-10-10T19:48:58.980Z,13.30
2022-10-10T19:51:30.659Z,13.30
2022-10-10T19:54:00.423Z,13.30
2022-10-10T19:56:31.039Z,13.20
2022-10-10T19:59:05.265Z,13.20
2022-10-10T20:01:37.407Z,13.30
2022-10-10T20:04:07.929Z,13.20
2022-10-10T20:06:38.135Z,13.10
2022-10-10T20:09:11.011Z,12.90
2022-10-10T20:11:41.847Z,12.70
2022-10-10T20:14:12.509Z,12.60
2022-10-10T20:16:44.230Z,12.60
2022-10-10T20:19:14.138Z,12.40
2022-10-10T20:21:44.063Z,12.30
2022-10-10T20:24:14.140Z,12.00
2022-10-10T20:26:44.452Z,11.70
2022-10-10T20:29:15.774Z,11.50
2022-10-10T20:31:47.708Z,11.30
2022-10-10T20:34:18.770Z,11.20
2022-10-10T20:36:48.625Z,10.40
2022-10-10T20:39:18.354Z,10.90
2022-10-10T20:41:48.182Z,10.90
2022-10-10T20:44:17.422Z,10.90
2022-10-10T20:46:49.375Z,10.90
2022-10-10T20:49:23.798Z,10.80
2022-10-10T20:51:53.598Z,10.80
2022-10-10T20:54:25.095Z,10.70
2022-10-10T20:56:55.137Z,10.70
2022-10-10T20:59:25.232Z,10.80
2022-10-10T21:01:56.399Z,10.80
2022-10-10T21:04:27.498Z,10.60
2022-10-10T21:06:57.522Z,10.60
2022-10-10T21:09:27.645Z,10.60
2022-10-10T21:11:57.324Z,10.70
2022-10-10T21:14:27.095Z,10.80
2022-10-10T21:16:59.025Z,10.60
2022-10-10T21:19:29.137Z,10.60
2022-10-10T21:21:58.344Z,10.50
2022-10-10T21:24:27.865Z,10.50
2022-10-10T21:26:57.573Z,10.60
2022-10-10T21:29:28.717Z,10.50
2022-10-10T21:32:00.126Z,10.20
2022-10-10T21:34:30.112Z,10.30
2022-10-10T21:37:01.457Z,10.20
2022-10-10T21:39:33.840Z,10.20
2022-10-10T21:42:03.276Z,10.20
2022-10-10T21:44:32.492Z,10.20
2022-10-10T21:47:04.005Z,10.10
2022-10-10T21:49:34.786Z,10.10
2022-10-10T21:52:04.164Z,10.10
2022-10-10T21:54:33.528Z,10.10
2022-10-10T21:57:03.056Z,10.10
2022-10-10T21:59:32.840Z,10.10
2022-10-10T22:02:04.069Z,10.00
2022-10-10T22:04:34.343Z,10.00
2022-10-10T22:07:05.098Z,10.10
2022-10-10T22:09:34.882Z,10.10
2022-10-10T22:12:04.485Z,10.10
2022-10-10T22:14:33.779Z,10.10
2022-10-10T22:17:05.743Z,10.10
2022-10-10T22:19:35.488Z,10.00
2022-10-10T22:22:05.210Z,10.10
2022-10-10T22:24:34.872Z,10.30
2022-10-10T22:27:04.459Z,10.70
2022-10-10T22:29:33.991Z,10.60
2022-10-10T22:32:05.415Z,10.60
2022-10-10T22:34:35.645Z,10.60
2022-10-10T22:37:04.952Z,10.60
2022-10-10T22:39:34.336Z,10.60
2022-10-10T22:42:04.231Z,10.80
2022-10-10T22:44:33.932Z,10.80
2022-10-10T22:47:04.656Z,10.70
2022-10-10T22:49:38.102Z,10.60
2022-10-10T22:52:08.208Z,10.50
2022-10-10T22:54:38.271Z,10.40
2022-10-10T22:57:07.852Z,10.60
2022-10-10T22:59:37.555Z,10.50
2022-10-10T23:02:09.017Z,10.40
2022-10-10T23:04:38.298Z,10.30
2022-10-10T23:07:07.702Z,10.30
2022-10-10T23:09:37.722Z,10.20
2022-10-10T23:12:07.883Z,10.20
2022-10-10T23:14:37.019Z,9.90
2022-10-10T23:17:06.607Z,10.10
2022-10-10T23:19:37.963Z,10.00
2022-10-10T23:22:07.554Z,9.80
2022-10-10T23:24:39.522Z,9.80
2022-10-10T23:27:08.870Z,9.70
2022-10-10T23:29:38.450Z,10.00
2022-10-10T23:32:07.450Z,9.80
2022-10-10T23:34:38.376Z,9.80
2022-10-10T23:37:07.463Z,9.80
2022-10-10T23:39:36.622Z,9.60
2022-10-10T23:42:06.283Z,9.50
2022-10-10T23:44:35.626Z,9.40
2022-10-10T23:49:34.190Z,9.10
2022-10-10T23:52:05.250Z,9.00
2022-10-10T23:54:34.682Z,8.90
2022-10-10T23:57:03.900Z,8.70
2022-10-10T23:59:33.118Z,8.60
